Time;durP1;ratioP1;P1;durP2;ratioP2;P2;SDS_P1;SDS_P2;PMS_P1;PMS_P2;Temp;Humidity;BMP_temperature;BMP_pressure;BME280_temperature;BME280_humidity;BME280_pressure;Samples;Min_cycle;Max_cycle;Signal;HPM_P1;HPM_P2
2021/10/04 00:02:52;;;;;;;28.38;24.10;;;22.20;54.20;;;;;;4739282;59;21154;-27
2021/10/04 00:07:53;;;;;;;28.02;24.08;;;22.20;54.20;;;;;;4778448;55;21077;-28
2021/10/04 00:12:54;;;;;;;28.12;23.50;;;22.20;54.20;;;;;;4756420;55;21026;-27
2021/10/04 00:17:56;;;;;;;27.50;23.15;;;22.20;54.20;;;;;;4764038;55;21587;-29
2021/10/04 00:22:58;;;;;;;28.08;23.75;;;22.20;54.20;;;;;;4738934;55;21022;-27
2021/10/04 00:27:59;;;;;;;27.08;23.33;;;22.20;54.20;;;;;;4769003;55;21062;-29
2021/10/04 00:33:00;;;;;;;27.55;23.33;;;22.20;54.60;;;;;;4778135;55;21078;-27
2021/10/04 00:38:01;;;;;;;25.90;22.73;;;22.20;54.20;;;;;;4738829;59;21010;-30
2021/10/04 00:43:02;;;;;;;26.17;22.40;;;22.20;54.20;;;;;;4804136;55;21491;-28
2021/10/04 00:48:04;;;;;;;28.73;22.90;;;22.20;54.20;;;;;;4778209;55;21121;-27
2021/10/04 00:53:05;;;;;;;26.52;22.15;;;22.20;54.20;;;;;;4748535;55;21480;-29
2021/10/04 00:58:06;;;;;;;26.73;22.02;;;22.20;54.10;;;;;;4761809;55;21058;-22
2021/10/04 01:03:07;;;;;;;26.17;22.10;;;22.20;54.10;;;;;;4747162;55;20994;-26
2021/10/04 01:08:08;;;;;;;27.92;23.08;;;22.20;54.10;;;;;;4776345;55;21544;-24
2021/10/04 01:13:08;;;;;;;27.67;22.67;;;22.20;54.10;;;;;;4741766;55;21017;-27
2021/10/04 01:18:09;;;;;;;25.85;22.70;;;22.20;54.10;;;;;;4738649;55;21580;-28
2021/10/04 01:23:10;;;;;;;23.98;21.30;;;22.20;54.10;;;;;;4753717;55;21018;-27
2021/10/04 01:28:11;;;;;;;25.77;22.13;;;22.20;54.10;;;;;;4788123;55;21034;-26
2021/10/04 01:33:12;;;;;;;26.45;22.33;;;22.20;54.10;;;;;;4776877;55;21033;-27
2021/10/04 01:38:13;;;;;;;24.58;20.23;;;22.20;54.10;;;;;;4744814;55;21101;-27
2021/10/04 01:43:14;;;;;;;25.35;22.08;;;22.20;54.10;;;;;;4754952;55;21089;-25
2021/10/04 01:48:15;;;;;;;27.25;21.92;;;22.20;54.10;;;;;;4758950;55;21214;-25
2021/10/04 01:53:16;;;;;;;26.08;21.05;;;22.20;54.00;;;;;;4737897;55;21544;-27
2021/10/04 01:58:17;;;;;;;26.52;21.33;;;22.20;54.00;;;;;;4737256;59;21201;-24
2021/10/04 02:03:18;;;;;;;25.08;20.95;;;22.20;54.00;;;;;;4739748;55;21112;-27
2021/10/04 02:08:19;;;;;;;23.60;20.70;;;22.20;54.00;;;;;;4738897;59;21033;-28
2021/10/04 02:13:20;;;;;;;23.62;20.88;;;22.20;54.00;;;;;;4742309;55;21216;-23
2021/10/04 02:18:21;;;;;;;23.50;20.15;;;22.20;54.00;;;;;;4762635;55;21165;-29
2021/10/04 02:23:21;;;;;;;24.30;20.17;;;22.20;54.00;;;;;;4753293;55;21548;-20
2021/10/04 02:28:25;;;;;;;22.58;19.60;;;22.20;54.00;;;;;;4772101;55;21014;-28
2021/10/04 02:33:26;;;;;;;21.85;19.27;;;22.10;53.90;;;;;;4753765;55;21031;-24
2021/10/04 02:38:27;;;;;;;24.12;20.00;;;22.20;53.90;;;;;;4755007;55;21016;-28
2021/10/04 02:43:29;;;;;;;23.30;19.83;;;22.20;53.90;;;;;;4767565;55;21026;-24
2021/10/04 02:48:30;;;;;;;25.20;19.92;;;22.10;53.90;;;;;;4754944;55;21040;-28
2021/10/04 02:53:31;;;;;;;23.70;19.50;;;22.10;53.80;;;;;;4754084;55;21085;-27
2021/10/04 02:58:32;;;;;;;21.70;19.27;;;22.10;53.80;;;;;;4741176;55;21093;-28
2021/10/04 03:03:33;;;;;;;21.87;19.35;;;22.10;53.80;;;;;;4738775;59;21056;-29
2021/10/04 03:08:34;;;;;;;21.80;19.12;;;22.10;53.80;;;;;;4739834;55;21029;-31
2021/10/04 03:13:35;;;;;;;21.48;18.90;;;22.10;53.80;;;;;;4757792;55;21507;-27
2021/10/04 03:18:36;;;;;;;22.37;18.70;;;22.10;54.40;;;;;;4743438;55;21078;-27
2021/10/04 03:23:37;;;;;;;20.48;18.17;;;22.10;53.80;;;;;;4801181;55;21097;-26
2021/10/04 03:28:37;;;;;;;22.23;18.70;;;22.10;53.80;;;;;;4741556;55;21152;-27
2021/10/04 03:33:39;;;;;;;20.23;17.98;;;22.10;53.70;;;;;;4755894;55;21136;-28
2021/10/04 03:38:40;;;;;;;20.35;17.77;;;22.10;53.70;;;;;;4738419;59;21042;-25
2021/10/04 03:43:40;;;;;;;20.60;18.25;;;22.10;53.70;;;;;;4756390;55;21041;-26
2021/10/04 03:48:41;;;;;;;20.10;16.95;;;22.10;53.70;;;;;;4786202;55;21077;-24
2021/10/04 03:53:42;;;;;;;19.95;17.52;;;22.10;53.70;;;;;;4741079;55;21009;-28
2021/10/04 03:58:43;;;;;;;20.10;17.48;;;22.10;54.30;;;;;;4739869;55;21110;-24
2021/10/04 04:03:44;;;;;;;21.33;17.33;;;22.10;53.70;;;;;;4759531;55;21010;-20
2021/10/04 04:08:45;;;;;;;20.15;17.80;;;22.10;53.70;;;;;;4738399;59;21479;-26
2021/10/04 04:13:49;;;;;;;19.73;17.37;;;22.10;53.70;;;;;;4757053;55;21082;-26
2021/10/04 04:18:49;;;;;;;20.55;17.62;;;22.10;53.70;;;;;;4753857;55;21142;-27
2021/10/04 04:23:50;;;;;;;18.42;16.23;;;22.10;53.60;;;;;;4791356;55;21568;-28
2021/10/04 04:28:51;;;;;;;19.42;16.35;;;22.10;53.60;;;;;;4755057;55;21045;-29
2021/10/04 04:33:54;;;;;;;18.87;16.87;;;22.10;53.60;;;;;;4756428;55;21949;-31
2021/10/04 04:38:58;;;;;;;20.15;17.05;;;22.10;53.70;;;;;;4738426;59;21010;-27
2021/10/04 04:43:59;;;;;;;17.73;15.70;;;22.10;53.70;;;;;;4746109;55;21045;-30
2021/10/04 04:49:00;;;;;;;18.02;16.12;;;22.10;53.70;;;;;;4749815;55;21472;-25
2021/10/04 04:54:01;;;;;;;20.08;17.20;;;22.10;53.70;;;;;;4736889;59;21018;-24
2021/10/04 04:59:02;;;;;;;20.25;16.95;;;22.10;53.70;;;;;;4757727;55;21599;-28
2021/10/04 05:04:05;;;;;;;18.08;16.08;;;22.10;53.60;;;;;;4811071;55;20986;-27
2021/10/04 05:09:06;;;;;;;18.92;16.70;;;22.10;53.60;;;;;;4771547;55;21049;-28
2021/10/04 05:14:07;;;;;;;18.70;16.70;;;22.10;53.60;;;;;;4737616;55;21101;-27
2021/10/04 05:19:07;;;;;;;17.85;15.95;;;22.10;53.50;;;;;;4765210;55;21159;-29
2021/10/04 05:24:08;;;;;;;17.67;15.63;;;22.10;53.50;;;;;;4739952;55;21033;-24
2021/10/04 05:29:10;;;;;;;17.62;15.70;;;22.10;53.50;;;;;;4794957;55;21045;-30
2021/10/04 05:34:10;;;;;;;18.45;16.45;;;22.00;53.30;;;;;;4772336;55;21103;-29
2021/10/04 05:39:11;;;;;;;17.40;15.60;;;22.00;53.30;;;;;;4740516;55;21483;-28
2021/10/04 05:44:12;;;;;;;19.48;16.77;;;22.10;53.50;;;;;;4764896;55;21476;-30
2021/10/04 05:49:13;;;;;;;18.65;14.98;;;22.00;53.10;;;;;;4738386;59;21062;-29
2021/10/04 05:54:14;;;;;;;17.17;14.43;;;22.00;53.10;;;;;;4739751;55;21499;-29
2021/10/04 05:59:14;;;;;;;18.75;16.10;;;22.00;53.10;;;;;;4760691;55;21026;-28
2021/10/04 06:04:15;;;;;;;18.20;14.80;;;22.00;53.00;;;;;;4749421;55;21014;-26
2021/10/04 06:09:16;;;;;;;16.85;14.60;;;22.00;53.00;;;;;;4742535;55;21484;-23
2021/10/04 06:14:17;;;;;;;16.80;14.87;;;22.00;53.00;;;;;;4760011;55;21085;-28
2021/10/04 06:19:18;;;;;;;16.83;15.05;;;22.00;52.90;;;;;;4768125;55;21491;-29
2021/10/04 06:24:22;;;;;;;17.80;15.15;;;22.00;53.00;;;;;;4748429;55;21109;-28
2021/10/04 06:29:23;;;;;;;17.27;15.40;;;22.00;52.90;;;;;;4758417;55;21615;-29
2021/10/04 06:34:27;;;;;;;16.48;14.65;;;22.00;52.90;;;;;;4737027;59;20998;-25
2021/10/04 06:39:28;;;;;;;20.70;15.32;;;22.00;52.90;;;;;;4740415;55;21018;-28
2021/10/04 06:44:29;;;;;;;18.35;15.13;;;22.00;52.80;;;;;;4746807;55;21053;-24
2021/10/04 06:49:30;;;;;;;18.10;16.20;;;22.00;52.80;;;;;;4760503;55;21509;-28
2021/10/04 06:54:31;;;;;;;18.65;15.77;;;22.00;52.80;;;;;;4737907;59;21014;-29
2021/10/04 06:59:33;;;;;;;20.23;16.55;;;22.00;52.80;;;;;;4807892;55;21604;-29
2021/10/04 07:04:34;;;;;;;18.75;16.30;;;22.00;52.80;;;;;;4763233;55;21524;-29
2021/10/04 07:09:35;;;;;;;17.85;15.88;;;22.00;52.80;;;;;;4738449;59;21011;-27
2021/10/04 07:14:36;;;;;;;36.10;25.90;;;22.00;52.90;;;;;;4736631;59;21539;-25
2021/10/04 07:19:37;;;;;;;36.33;27.95;;;22.00;50.70;;;;;;4741526;55;21105;-27
2021/10/04 07:24:39;;;;;;;35.55;26.23;;;21.90;50.60;;;;;;4740064;55;21002;-28
2021/10/04 07:29:40;;;;;;;39.65;28.50;;;21.90;50.90;;;;;;4755055;55;21030;-28
2021/10/04 07:34:41;;;;;;;42.80;29.40;;;22.00;51.20;;;;;;4745883;55;21007;-27
2021/10/04 07:39:42;;;;;;;41.60;29.55;;;22.00;51.50;;;;;;4745606;55;21168;-26
2021/10/04 07:44:43;;;;;;;41.78;28.45;;;22.00;51.40;;;;;;4755785;55;21165;-27
2021/10/04 07:49:43;;;;;;;39.72;29.12;;;22.00;51.50;;;;;;4798888;55;21069;-23
2021/10/04 07:54:44;;;;;;;45.33;32.20;;;22.00;51.70;;;;;;4762860;55;21017;-24
2021/10/04 07:59:45;;;;;;;39.53;30.80;;;22.00;51.80;;;;;;4735845;55;21092;-26
2021/10/04 08:04:46;;;;;;;40.72;30.67;;;22.00;52.00;;;;;;4747037;55;21038;-27
2021/10/04 08:09:47;;;;;;;44.30;30.92;;;22.00;52.30;;;;;;4739708;55;21002;-28
2021/10/04 08:14:47;;;;;;;42.67;31.30;;;22.10;53.20;;;;;;4755639;55;21045;-25
2021/10/04 08:19:50;;;;;;;44.83;32.05;;;22.10;53.10;;;;;;4734447;59;21074;-29
2021/10/04 08:24:51;;;;;;;45.72;32.92;;;22.10;53.00;;;;;;4737566;59;20998;-24
2021/10/04 08:29:51;;;;;;;49.42;33.65;;;22.10;53.00;;;;;;4753866;55;21009;-27
2021/10/04 08:34:52;;;;;;;89.62;65.57;;;22.20;53.10;;;;;;4737336;55;21197;-27
2021/10/04 08:39:53;;;;;;;161.85;126.87;;;22.20;53.40;;;;;;4738906;55;21065;-26
2021/10/04 08:44:54;;;;;;;150.15;120.03;;;22.20;53.30;;;;;;4769849;55;21480;-28
2021/10/04 08:49:55;;;;;;;127.45;97.97;;;22.20;53.40;;;;;;4737340;59;21101;-27
2021/10/04 08:54:56;;;;;;;112.30;84.80;;;22.20;53.50;;;;;;4753860;55;21539;-28
2021/10/04 08:59:57;;;;;;;103.68;78.15;;;22.30;53.40;;;;;;4739053;55;21488;-26
2021/10/04 09:05:25;;;;;;;97.80;73.45;;;22.30;53.30;;;;;;4743198;55;21017;-25
2021/10/04 09:10:30;;;;;;;101.28;74.53;;;22.30;53.90;;;;;;4748710;55;21487;-29
2021/10/04 09:15:52;;;;;;;100.50;76.22;;;22.40;53.40;;;;;;4759243;55;21073;-27
2021/10/04 09:21:11;;;;;;;98.62;75.82;;;22.40;53.40;;;;;;4738037;59;21141;-23
2021/10/04 09:26:35;;;;;;;102.85;74.47;;;22.50;53.50;;;;;;4779152;55;21077;-27
2021/10/04 09:31:41;;;;;;;91.68;67.50;;;22.50;53.60;;;;;;4751780;55;21078;-24
2021/10/04 09:36:59;;;;;;;83.60;63.90;;;22.50;53.40;;;;;;4738780;55;21061;-29
2021/10/04 09:42:22;;;;;;;82.00;64.32;;;22.50;53.40;;;;;;4742938;55;21132;-27
2021/10/04 09:47:32;;;;;;;83.07;64.20;;;22.60;53.40;;;;;;4737241;59;21532;-27
2021/10/04 09:53:02;;;;;;;86.53;64.97;;;22.60;53.30;;;;;;4737160;55;21077;-24
2021/10/04 09:58:28;;;;;;;89.30;65.30;;;22.60;53.30;;;;;;4762455;55;21089;-26
2021/10/04 10:03:41;;;;;;;88.18;64.47;;;22.60;53.30;;;;;;4753196;55;21165;-28
2021/10/04 10:08:42;;;;;;;83.57;62.53;;;22.60;53.20;;;;;;4755771;55;21479;-25
2021/10/04 10:13:44;;;;;;;83.87;62.65;;;22.60;53.20;;;;;;4743458;55;20998;-27
2021/10/04 10:19:00;;;;;;;81.25;60.78;;;22.60;53.30;;;;;;4783708;55;20982;-26
2021/10/04 10:24:04;;;;;;;80.53;60.60;;;22.60;53.40;;;;;;4738043;55;21017;-25
2021/10/04 10:29:39;;;;;;;78.78;58.40;;;22.70;53.60;;;;;;4749375;55;22147;-26
2021/10/04 10:34:49;;;;;;;77.37;58.13;;;22.70;53.80;;;;;;4742690;55;21010;-28
2021/10/04 10:40:09;;;;;;;74.70;55.38;;;22.70;53.90;;;;;;4746832;55;21206;-27
2021/10/04 10:45:12;;;;;;;72.05;54.92;;;22.70;54.20;;;;;;4738262;59;21010;-25
2021/10/04 10:50:31;;;;;;;70.28;53.33;;;22.70;54.50;;;;;;4761506;55;21586;-27
2021/10/04 10:55:41;;;;;;;65.82;51.37;;;22.80;54.50;;;;;;4746204;55;21078;-28
2021/10/04 11:01:32;;;;;;;71.57;49.78;;;22.80;54.70;;;;;;4743103;55;20989;-24
2021/10/04 11:06:42;;;;;;;66.30;49.15;;;22.80;54.80;;;;;;4738567;55;21080;-25
2021/10/04 11:11:43;;;;;;;61.88;47.45;;;22.90;54.80;;;;;;4737528;59;21547;-26
2021/10/04 11:16:59;;;;;;;61.65;46.10;;;22.90;53.80;;;;;;4737246;55;21013;-30
2021/10/04 11:22:00;;;;;;;62.67;47.50;;;22.90;54.00;;;;;;4772469;55;20998;-28
2021/10/04 11:27:01;;;;;;;64.37;47.70;;;22.90;54.10;;;;;;4738125;59;21085;-24
2021/10/04 11:32:12;;;;;;;58.38;44.17;;;22.80;54.00;;;;;;4747074;55;21014;-26
2021/10/04 11:37:13;;;;;;;58.25;43.33;;;22.80;54.00;;;;;;4754979;55;21420;-32
2021/10/04 11:42:14;;;;;;;60.72;44.65;;;22.80;54.00;;;;;;4744626;55;21002;-28
2021/10/04 11:47:15;;;;;;;54.17;43.58;;;22.80;53.90;;;;;;4741575;55;21578;-24
2021/10/04 11:52:19;;;;;;;53.55;42.30;;;22.80;54.20;;;;;;4761745;55;20990;-28
2021/10/04 11:57:32;;;;;;;53.00;39.20;;;22.80;53.50;;;;;;4753048;55;21042;-25
2021/10/04 12:02:39;;;;;;;45.72;36.80;;;22.90;51.60;;;;;;4783388;55;21057;-23
2021/10/04 12:08:09;;;;;;;48.65;37.42;;;22.90;50.10;;;;;;4747639;55;21455;-28
2021/10/04 12:13:18;;;;;;;51.22;40.47;;;22.90;49.30;;;;;;4746702;55;21025;-27
2021/10/04 12:18:21;;;;;;;59.80;46.78;;;22.90;48.00;;;;;;4747541;55;20978;-26
2021/10/04 12:23:26;;;;;;;64.40;50.55;;;23.00;47.70;;;;;;4739854;55;21006;-26
2021/10/04 12:28:26;;;;;;;67.93;54.08;;;23.00;47.50;;;;;;4757999;55;21111;-28
2021/10/04 12:33:47;;;;;;;78.53;59.42;;;23.00;47.20;;;;;;4753593;55;21034;-25
2021/10/04 12:38:57;;;;;;;71.12;54.83;;;23.00;46.70;;;;;;4753304;55;21544;-27
2021/10/04 12:44:08;;;;;;;65.35;51.50;;;23.10;46.70;;;;;;4760903;55;20978;-28
2021/10/04 12:49:22;;;;;;;54.50;44.10;;;23.10;46.10;;;;;;4747791;55;20982;-28
2021/10/04 12:54:35;;;;;;;48.13;39.25;;;23.10;45.60;;;;;;4737901;55;21038;-28
2021/10/04 12:59:37;;;;;;;45.38;35.47;;;23.10;44.80;;;;;;4764559;55;21082;-25
2021/10/04 13:04:38;;;;;;;39.55;32.40;;;23.10;44.40;;;;;;4738166;55;21527;-26
2021/10/04 13:09:39;;;;;;;39.33;30.73;;;23.10;44.30;;;;;;4754354;55;21010;-28
2021/10/04 13:14:40;;;;;;;35.03;26.80;;;23.10;43.60;;;;;;4746103;55;21086;-26
2021/10/04 13:19:41;;;;;;;35.10;28.65;;;23.10;43.20;;;;;;4738031;59;21006;-27
2021/10/04 13:24:42;;;;;;;35.72;26.58;;;23.10;43.10;;;;;;4737427;59;21038;-26
2021/10/04 13:29:44;;;;;;;31.10;24.05;;;23.10;43.00;;;;;;4759775;55;21129;-33
2021/10/04 13:34:44;;;;;;;31.08;23.50;;;23.20;43.10;;;;;;4741712;55;21198;-27
2021/10/04 13:39:45;;;;;;;31.08;22.92;;;23.20;42.50;;;;;;4749413;55;21198;-26
2021/10/04 13:44:46;;;;;;;28.15;22.87;;;23.10;43.50;;;;;;4741487;55;21111;-26
2021/10/04 13:49:47;;;;;;;29.70;23.25;;;23.10;44.40;;;;;;4737499;59;21021;-26
2021/10/04 13:54:48;;;;;;;27.15;22.45;;;23.10;45.00;;;;;;4746721;55;21026;-28
2021/10/04 13:59:48;;;;;;;30.02;22.83;;;23.10;45.40;;;;;;4782571;55;21030;-27
2021/10/04 14:04:49;;;;;;;27.80;22.65;;;23.10;45.80;;;;;;4740921;55;21476;-26
2021/10/04 14:09:50;;;;;;;27.48;21.65;;;23.10;46.20;;;;;;4761360;55;21374;-26
2021/10/04 14:14:51;;;;;;;27.20;22.50;;;23.10;46.50;;;;;;4737898;55;21010;-26
2021/10/04 14:19:53;;;;;;;27.67;21.85;;;23.10;46.90;;;;;;4739521;55;21572;-27
2021/10/04 14:24:54;;;;;;;28.62;22.60;;;23.10;47.20;;;;;;4757881;55;21611;-28
2021/10/04 14:29:57;;;;;;;25.23;21.05;;;23.10;47.50;;;;;;4763274;55;21006;-28
2021/10/04 14:34:58;;;;;;;27.67;20.90;;;23.10;47.70;;;;;;4755816;55;21049;-27
2021/10/04 14:39:59;;;;;;;25.62;21.35;;;23.10;48.10;;;;;;4743017;55;21150;-29
2021/10/04 14:45:00;;;;;;;26.20;22.10;;;23.10;48.30;;;;;;4750982;55;21055;-23
2021/10/04 14:50:01;;;;;;;23.75;21.17;;;23.10;48.50;;;;;;4748189;55;21310;-26
2021/10/04 14:55:04;;;;;;;23.05;20.50;;;23.10;48.70;;;;;;4751290;55;21643;-24
2021/10/04 15:00:07;;;;;;;25.83;21.75;;;23.10;49.00;;;;;;4742648;55;21053;-24
2021/10/04 15:05:09;;;;;;;25.40;21.67;;;23.10;49.20;;;;;;4753963;55;20998;-33
2021/10/04 15:10:10;;;;;;;27.23;21.77;;;23.10;49.50;;;;;;4767028;55;21045;-28
2021/10/04 15:15:11;;;;;;;25.52;22.40;;;23.10;49.60;;;;;;4750095;55;21306;-26
2021/10/04 15:20:12;;;;;;;25.92;21.80;;;23.00;49.60;;;;;;4849016;55;21536;-25
2021/10/04 15:25:13;;;;;;;25.00;21.83;;;23.00;49.80;;;;;;4752023;55;21004;-29
2021/10/04 15:30:14;;;;;;;25.92;21.35;;;23.00;49.90;;;;;;4751096;55;20989;-26
2021/10/04 15:35:15;;;;;;;25.60;22.08;;;22.90;50.00;;;;;;4752350;55;21045;-30
2021/10/04 15:40:16;;;;;;;24.73;21.37;;;22.90;50.10;;;;;;4772891;55;21125;-30
2021/10/04 15:45:18;;;;;;;25.37;21.77;;;22.80;50.10;;;;;;4753733;55;21584;-29
2021/10/04 15:50:20;;;;;;;24.55;21.95;;;22.90;50.20;;;;;;4753769;55;21053;-29
2021/10/04 15:55:20;;;;;;;25.85;22.58;;;22.80;50.30;;;;;;4737467;55;21571;-29
2021/10/04 16:00:23;;;;;;;24.50;21.48;;;22.80;50.40;;;;;;4743877;55;21021;-25
2021/10/04 16:05:26;;;;;;;25.30;22.52;;;22.80;50.50;;;;;;4745252;55;21473;-30
2021/10/04 16:10:28;;;;;;;25.88;22.23;;;22.80;50.50;;;;;;4763434;55;21472;-27
2021/10/04 16:15:29;;;;;;;25.50;22.75;;;22.80;50.60;;;;;;4744680;55;20994;-27
2021/10/04 16:20:29;;;;;;;24.23;21.62;;;22.80;50.70;;;;;;4747413;55;21010;-29
2021/10/04 16:25:32;;;;;;;25.62;21.83;;;22.70;50.70;;;;;;4745609;55;21479;-27
2021/10/04 16:30:34;;;;;;;25.48;22.77;;;22.70;50.80;;;;;;4744771;55;21440;-30
2021/10/04 16:35:35;;;;;;;25.95;22.60;;;22.70;51.50;;;;;;4794909;55;21080;-26
2021/10/04 16:40:37;;;;;;;26.35;21.92;;;22.70;51.00;;;;;;4772571;55;20998;-28
2021/10/04 16:45:38;;;;;;;25.40;22.35;;;22.70;51.00;;;;;;4769116;55;21523;-29
2021/10/04 16:50:52;;;;;;;26.23;22.15;;;22.70;51.00;;;;;;4737787;59;21014;-29
2021/10/04 16:56:06;;;;;;;24.30;21.58;;;22.70;51.00;;;;;;4746242;55;21073;-29
2021/10/04 17:01:19;;;;;;;25.33;22.58;;;22.70;51.00;;;;;;4751229;55;21022;-26
2021/10/04 17:06:33;;;;;;;25.27;21.87;;;22.70;51.10;;;;;;4756197;55;20997;-29
2021/10/04 17:11:47;;;;;;;25.27;21.52;;;22.70;51.20;;;;;;4775439;55;21026;-24
2021/10/04 17:17:00;;;;;;;25.08;22.42;;;22.60;51.20;;;;;;4788938;55;21037;-28
2021/10/04 17:22:04;;;;;;;25.37;22.30;;;22.60;51.30;;;;;;4746995;55;21089;-28
2021/10/04 17:27:05;;;;;;;24.48;21.75;;;22.60;51.30;;;;;;4776564;55;21006;-28
2021/10/04 17:32:07;;;;;;;24.83;21.77;;;22.60;51.40;;;;;;4742265;55;21018;-32
2021/10/04 17:37:08;;;;;;;26.27;22.42;;;22.60;51.40;;;;;;4743133;55;21042;-30
2021/10/04 17:42:08;;;;;;;25.05;22.00;;;22.60;51.50;;;;;;4743600;55;21073;-29
2021/10/04 17:47:09;;;;;;;25.33;21.83;;;22.60;51.50;;;;;;4748748;55;21507;-29
2021/10/04 17:52:10;;;;;;;25.77;22.95;;;22.60;51.50;;;;;;4737907;59;21002;-30
2021/10/04 17:57:12;;;;;;;24.73;22.08;;;22.60;51.60;;;;;;4794893;55;21030;-30
2021/10/04 18:02:16;;;;;;;26.95;21.92;;;22.60;51.60;;;;;;4753832;55;21109;-29
2021/10/04 18:07:18;;;;;;;26.00;22.98;;;22.60;51.60;;;;;;4741594;55;21464;-28
2021/10/04 18:12:19;;;;;;;27.48;23.35;;;22.60;51.80;;;;;;4738431;55;21554;-27
2021/10/04 18:17:20;;;;;;;25.70;22.45;;;22.60;51.70;;;;;;4758403;55;21005;-27
2021/10/04 18:22:24;;;;;;;27.77;23.42;;;22.60;51.80;;;;;;4738234;55;21587;-27
2021/10/04 18:27:26;;;;;;;28.12;23.75;;;22.60;51.80;;;;;;4758920;55;21472;-27
2021/10/04 18:32:27;;;;;;;27.20;24.10;;;22.60;51.90;;;;;;4758071;55;21174;-27
2021/10/04 18:37:27;;;;;;;25.83;22.90;;;22.60;51.90;;;;;;4738901;59;21483;-29
2021/10/04 18:42:30;;;;;;;27.92;24.25;;;22.60;51.90;;;;;;4749900;55;20994;-26
2021/10/04 18:47:31;;;;;;;28.52;23.33;;;22.50;51.90;;;;;;4738310;59;21519;-27
2021/10/04 18:52:32;;;;;;;26.98;23.67;;;22.60;52.00;;;;;;4738073;59;21014;-27
2021/10/04 18:57:33;;;;;;;26.27;23.40;;;22.60;52.00;;;;;;4739204;55;21125;-30
2021/10/04 19:02:34;;;;;;;27.73;24.45;;;22.50;52.00;;;;;;4752015;55;21062;-29
2021/10/04 19:07:34;;;;;;;29.05;24.85;;;22.50;52.00;;;;;;4785597;55;21453;-28
2021/10/04 19:12:36;;;;;;;28.35;24.50;;;22.50;52.00;;;;;;4750850;55;21519;-30
2021/10/04 19:17:37;;;;;;;29.42;24.40;;;22.60;52.10;;;;;;4752155;55;21069;-28
2021/10/04 19:22:38;;;;;;;29.25;24.30;;;22.60;52.10;;;;;;4763577;55;20990;-28
2021/10/04 19:27:40;;;;;;;27.25;23.58;;;22.50;52.10;;;;;;4749387;55;21022;-26
2021/10/04 19:32:41;;;;;;;28.12;24.23;;;22.50;52.70;;;;;;4763283;55;21081;-29
2021/10/04 19:37:42;;;;;;;28.20;24.37;;;22.50;52.10;;;;;;4749019;55;20993;-30
2021/10/04 19:42:44;;;;;;;28.15;24.05;;;22.50;52.20;;;;;;4737923;59;20998;-29
2021/10/04 19:47:46;;;;;;;30.02;24.65;;;22.50;52.20;;;;;;4738452;56;20986;-29
2021/10/04 19:52:47;;;;;;;30.85;24.17;;;22.50;52.20;;;;;;4738447;59;21531;-28
2021/10/04 19:57:48;;;;;;;27.33;23.83;;;22.50;52.20;;;;;;4745096;55;21061;-30
2021/10/04 20:02:50;;;;;;;30.92;24.98;;;22.50;52.20;;;;;;4740015;55;21026;-28
2021/10/04 20:07:51;;;;;;;29.98;24.65;;;22.50;52.20;;;;;;4739160;55;21562;-23
2021/10/04 20:12:52;;;;;;;30.70;25.50;;;22.50;52.30;;;;;;4762183;55;21021;-23
2021/10/04 20:17:52;;;;;;;27.90;24.73;;;22.50;52.30;;;;;;4738397;59;21030;-27
2021/10/04 20:22:53;;;;;;;30.42;24.58;;;22.50;52.30;;;;;;4800503;55;21050;-28
2021/10/04 20:27:54;;;;;;;30.75;24.73;;;22.50;52.30;;;;;;4773630;55;21050;-25
2021/10/04 20:32:55;;;;;;;30.00;25.05;;;22.50;52.40;;;;;;4737942;55;21105;-22
2021/10/04 20:37:57;;;;;;;29.80;24.67;;;22.50;52.30;;;;;;4738606;59;21477;-25
2021/10/04 20:42:57;;;;;;;30.85;25.60;;;22.50;52.40;;;;;;4746506;55;22180;-30
2021/10/04 20:47:58;;;;;;;31.15;24.73;;;22.40;52.30;;;;;;4739245;55;21021;-28
2021/10/04 20:52:59;;;;;;;28.65;24.67;;;22.40;52.30;;;;;;4749753;55;21025;-30
2021/10/04 20:58:00;;;;;;;31.23;25.30;;;22.40;52.40;;;;;;4745545;55;21096;-28
2021/10/04 21:03:02;;;;;;;28.70;24.40;;;22.50;52.40;;;;;;4744205;55;21106;-28
2021/10/04 21:08:03;;;;;;;31.83;25.45;;;22.50;52.40;;;;;;4744694;55;21001;-26
2021/10/04 21:13:04;;;;;;;29.48;24.50;;;22.40;52.40;;;;;;4796498;55;21041;-27
2021/10/04 21:18:06;;;;;;;30.33;24.05;;;22.40;52.40;;;;;;4746117;55;21025;-27
2021/10/04 21:23:07;;;;;;;33.17;25.95;;;22.50;52.50;;;;;;4754766;55;21491;-30
2021/10/04 21:28:08;;;;;;;30.33;24.95;;;22.50;52.50;;;;;;4738143;59;20986;-26
2021/10/04 21:33:09;;;;;;;30.77;24.70;;;22.50;52.50;;;;;;4773642;55;21495;-27
2021/10/04 21:38:10;;;;;;;29.58;23.45;;;22.50;52.50;;;;;;4749551;55;21025;-28
2021/10/04 21:43:11;;;;;;;29.50;24.02;;;22.50;52.50;;;;;;4755683;55;21026;-27
2021/10/04 21:48:11;;;;;;;30.60;25.35;;;22.40;52.50;;;;;;4753601;55;21094;-27
2021/10/04 21:53:12;;;;;;;28.95;24.08;;;22.50;52.60;;;;;;4767833;55;21006;-28
2021/10/04 21:58:13;;;;;;;29.08;24.92;;;22.40;52.60;;;;;;4748910;55;21073;-24
2021/10/04 22:03:28;;;;;;;28.80;24.08;;;22.40;52.50;;;;;;4795389;55;21049;-27
2021/10/04 22:13:50;;;;;;;27.65;23.38;;;22.40;52.50;;;;;;4738423;55;21026;-26
2021/10/04 22:18:50;;;;;;;29.23;23.52;;;22.50;52.60;;;;;;4749626;55;20994;-27
2021/10/04 22:23:52;;;;;;;30.20;23.75;;;22.40;52.60;;;;;;4738627;55;21001;-25
2021/10/04 22:28:53;;;;;;;29.52;24.92;;;22.40;52.60;;;;;;4737861;59;21030;-27
2021/10/04 22:33:54;;;;;;;27.58;23.83;;;22.40;53.30;;;;;;4747454;55;21006;-28
2021/10/04 22:38:55;;;;;;;29.15;23.87;;;22.40;52.60;;;;;;4761807;55;21118;-26
2021/10/04 22:43:56;;;;;;;27.80;23.02;;;22.40;52.60;;;;;;4748674;55;21492;-19
2021/10/04 22:48:57;;;;;;;27.90;23.58;;;22.40;52.60;;;;;;4741948;55;21021;-28
2021/10/04 22:53:58;;;;;;;28.10;23.00;;;22.40;52.60;;;;;;4750443;55;21026;-26
2021/10/04 22:59:00;;;;;;;28.73;24.02;;;22.40;52.60;;;;;;4768100;55;21022;-25
2021/10/04 23:04:01;;;;;;;27.23;22.77;;;22.40;52.60;;;;;;4738847;55;21065;-27
2021/10/04 23:09:02;;;;;;;27.83;22.77;;;22.40;52.60;;;;;;4745484;55;21328;-26
2021/10/04 23:14:03;;;;;;;26.95;23.08;;;22.40;52.60;;;;;;4756037;55;21623;-27
2021/10/04 23:19:07;;;;;;;28.38;22.75;;;22.40;52.70;;;;;;4738306;59;20986;-25
2021/10/04 23:24:07;;;;;;;28.23;23.60;;;22.40;52.70;;;;;;4746722;55;21057;-28
2021/10/04 23:29:08;;;;;;;28.83;22.95;;;22.40;52.70;;;;;;4738681;55;22062;-26
2021/10/04 23:34:09;;;;;;;26.23;22.50;;;22.40;53.30;;;;;;4745206;55;21054;-29
2021/10/04 23:39:10;;;;;;;27.58;23.25;;;22.40;52.70;;;;;;4751180;55;20993;-26
2021/10/04 23:44:11;;;;;;;26.50;22.27;;;22.40;52.70;;;;;;4738000;59;21077;-25
2021/10/04 23:49:12;;;;;;;27.27;23.12;;;22.40;52.80;;;;;;4747684;55;21062;-28
2021/10/04 23:54:12;;;;;;;26.30;22.13;;;22.30;52.60;;;;;;4833295;55;21078;-29
2021/10/04 23:59:13;;;;;;;26.77;22.37;;;22.40;52.70;;;;;;4739611;55;21034;-27
